KIXA

Halifax-Northampton Regional Airport

Roanoke Rapids, North Carolina, USA
METAR KIXA 181435Z AUTO 23009KT 10SM BKN019 BKN025 27/23 A3000 RMK AO2
Observed Flight Rules
Aug-18 @ 14:35 UTC (17 minutes ago) Marginal Visual Flight Rules
Wind Visibility Clouds
230° at 9 knots 10 miles
  • Broken at 1,900' AGL
  • Broken at 2,500' AGL
Temperatures Readings
Current 27°C / 81°F
Dewpoint 23°C / 73°F
Humidity 79%
Altimeter 30" Hg
Pressure 1016 hPa
Elevation 44
METAR KIXA 181435Z AUTO 23009KT 10SM BKN019 BKN025 27/23 A3000 RMK AO2
Observed Flight Rules
Aug-18 @ 14:35 UTC
(17 minutes ago)
MVFR
Wind Visibility
230° at 9 knots 10 miles
Clouds
  • Broken at 1,900' AGL
  • Broken at 2,500' AGL
Temperature Dewpoint
27°C / 81°F 23°C / 73°F
Humidity Altimeter Pressure
79% 30" Hg 1016 hPa